sensor_id;sensor_type;location;lat;lon;timestamp;pressure;altitude;pressure_sealevel;temperature;humidity
53550;BME280;67273;52.914;-0.982;2023-05-14T00:01:34;102140.88;;;19.29;51.56
53550;BME280;67273;52.914;-0.982;2023-05-14T00:04:00;102140.25;;;19.27;51.63
53550;BME280;67273;52.914;-0.982;2023-05-14T00:06:27;102134.78;;;19.27;51.58
53550;BME280;67273;52.914;-0.982;2023-05-14T00:08:53;102137.50;;;19.27;51.50
53550;BME280;67273;52.914;-0.982;2023-05-14T00:11:19;102135.81;;;19.26;51.56
53550;BME280;67273;52.914;-0.982;2023-05-14T00:13:45;102129.53;;;19.25;51.56
53550;BME280;67273;52.914;-0.982;2023-05-14T00:16:11;102131.44;;;19.25;51.51
53550;BME280;67273;52.914;-0.982;2023-05-14T00:18:37;102124.28;;;19.24;51.40
53550;BME280;67273;52.914;-0.982;2023-05-14T00:21:03;102127.88;;;19.24;51.53
53550;BME280;67273;52.914;-0.982;2023-05-14T00:23:30;102128.91;;;19.23;51.54
53550;BME280;67273;52.914;-0.982;2023-05-14T00:25:55;102128.09;;;19.23;51.50
53550;BME280;67273;52.914;-0.982;2023-05-14T00:28:21;102119.91;;;19.23;51.67
53550;BME280;67273;52.914;-0.982;2023-05-14T00:30:47;102115.50;;;19.22;51.55
53550;BME280;67273;52.914;-0.982;2023-05-14T00:33:14;102119.28;;;19.21;51.59
53550;BME280;67273;52.914;-0.982;2023-05-14T00:35:40;102119.28;;;19.21;51.55
53550;BME280;67273;52.914;-0.982;2023-05-14T00:38:06;102101.25;;;19.19;51.58
53550;BME280;67273;52.914;-0.982;2023-05-14T00:40:33;102102.06;;;19.20;51.68
53550;BME280;67273;52.914;-0.982;2023-05-14T00:42:59;102100.41;;;19.19;51.58
53550;BME280;67273;52.914;-0.982;2023-05-14T00:45:25;102098.72;;;19.18;51.50
53550;BME280;67273;52.914;-0.982;2023-05-14T00:47:51;102098.72;;;19.18;51.54
53550;BME280;67273;52.914;-0.982;2023-05-14T00:50:17;102086.16;;;19.17;51.76
53550;BME280;67273;52.914;-0.982;2023-05-14T00:52:44;102093.47;;;19.16;51.64
53550;BME280;67273;52.914;-0.982;2023-05-14T00:55:12;102085.31;;;19.16;51.65
53550;BME280;67273;52.914;-0.982;2023-05-14T00:57:42;102078.19;;;19.15;51.56
53550;BME280;67273;52.914;-0.982;2023-05-14T01:00:08;102080.06;;;19.15;51.70
53550;BME280;67273;52.914;-0.982;2023-05-14T01:02:35;102085.50;;;19.15;51.64
53550;BME280;67273;52.914;-0.982;2023-05-14T01:05:01;102086.56;;;19.14;51.63
53550;BME280;67273;52.914;-0.982;2023-05-14T01:07:32;102080.28;;;19.13;51.61
53550;BME280;67273;52.914;-0.982;2023-05-14T01:10:01;102072.13;;;19.13;51.69
53550;BME280;67273;52.914;-0.982;2023-05-14T01:12:32;102073.16;;;19.12;51.63
53550;BME280;67273;52.914;-0.982;2023-05-14T01:15:06;102078.59;;;19.12;51.63
53550;BME280;67273;52.914;-0.982;2023-05-14T01:17:40;102070.44;;;19.12;51.61
53550;BME280;67273;52.914;-0.982;2023-05-14T01:20:08;102072.31;;;19.12;51.61
53550;BME280;67273;52.914;-0.982;2023-05-14T01:22:36;102075.25;;;19.10;51.70
53550;BME280;67273;52.914;-0.982;2023-05-14T01:25:01;102064.34;;;19.10;51.56
53550;BME280;67273;52.914;-0.982;2023-05-14T01:27:33;102068.97;;;19.10;51.65
53550;BME280;67273;52.914;-0.982;2023-05-14T01:30:08;102066.25;;;19.10;51.59
53550;BME280;67273;52.914;-0.982;2023-05-14T01:32:34;102062.66;;;19.09;51.70
53550;BME280;67273;52.914;-0.982;2023-05-14T01:35:01;102061.00;;;19.08;51.64
53550;BME280;67273;52.914;-0.982;2023-05-14T01:37:28;102059.31;;;19.07;51.44
53550;BME280;67273;52.914;-0.982;2023-05-14T01:39:57;102053.88;;;19.07;51.71
53550;BME280;67273;52.914;-0.982;2023-05-14T01:42:24;102048.41;;;19.07;51.65
53550;BME280;67273;52.914;-0.982;2023-05-14T01:44:50;102053.03;;;19.07;51.61
53550;BME280;67273;52.914;-0.982;2023-05-14T01:47:16;102061.41;;;19.05;51.72
53550;BME280;67273;52.914;-0.982;2023-05-14T01:49:42;102048.63;;;19.06;51.63
53550;BME280;67273;52.914;-0.982;2023-05-14T01:52:07;102051.34;;;19.06;51.71
53550;BME280;67273;52.914;-0.982;2023-05-14T01:54:33;102050.53;;;19.05;51.70
53550;BME280;67273;52.914;-0.982;2023-05-14T01:57:00;102040.66;;;19.04;51.74
53550;BME280;67273;52.914;-0.982;2023-05-14T01:59:27;102032.50;;;19.04;51.58
53550;BME280;67273;52.914;-0.982;2023-05-14T02:01:54;102037.09;;;19.04;51.60
53550;BME280;67273;52.914;-0.982;2023-05-14T02:04:20;102036.28;;;19.03;51.69
53550;BME280;67273;52.914;-0.982;2023-05-14T02:06:45;102029.13;;;19.02;51.69
53550;BME280;67273;52.914;-0.982;2023-05-14T02:09:11;102029.13;;;19.02;51.51
53550;BME280;67273;52.914;-0.982;2023-05-14T02:11:37;102020.13;;;19.02;51.61
53550;BME280;67273;52.914;-0.982;2023-05-14T02:14:04;102020.34;;;19.00;51.76
53550;BME280;67273;52.914;-0.982;2023-05-14T02:16:30;102019.31;;;19.01;51.64
53550;BME280;67273;52.914;-0.982;2023-05-14T02:18:55;102022.03;;;19.01;51.63
53550;BME280;67273;52.914;-0.982;2023-05-14T02:21:21;102018.66;;;18.99;51.75
53550;BME280;67273;52.914;-0.982;2023-05-14T02:23:47;102014.06;;;18.99;51.67
53550;BME280;67273;52.914;-0.982;2023-05-14T02:26:14;102021.38;;;18.99;51.68
53550;BME280;67273;52.914;-0.982;2023-05-14T02:28:40;102015.94;;;18.99;51.71
53550;BME280;67273;52.914;-0.982;2023-05-14T02:31:07;102014.28;;;18.98;51.68
53550;BME280;67273;52.914;-0.982;2023-05-14T02:33:32;102005.28;;;18.97;51.66
53550;BME280;67273;52.914;-0.982;2023-05-14T02:35:58;102010.72;;;18.97;51.62
53550;BME280;67273;52.914;-0.982;2023-05-14T02:38:24;102012.56;;;18.97;51.78
53550;BME280;67273;52.914;-0.982;2023-05-14T02:40:50;102012.56;;;18.97;51.78
53550;BME280;67273;52.914;-0.982;2023-05-14T02:43:16;102010.06;;;18.95;51.65
53550;BME280;67273;52.914;-0.982;2023-05-14T02:45:45;102003.78;;;18.95;51.64
53550;BME280;67273;52.914;-0.982;2023-05-14T02:48:14;102006.50;;;18.95;51.77
53550;BME280;67273;52.914;-0.982;2023-05-14T02:50:41;102001.88;;;18.95;51.71
53550;BME280;67273;52.914;-0.982;2023-05-14T02:53:07;102000.22;;;18.94;51.53
53550;BME280;67273;52.914;-0.982;2023-05-14T02:55:34;102004.00;;;18.93;51.68
53550;BME280;67273;52.914;-0.982;2023-05-14T02:57:59;101996.03;;;18.92;51.68
53550;BME280;67273;52.914;-0.982;2023-05-14T03:00:25;101991.44;;;18.92;51.62
53550;BME280;67273;52.914;-0.982;2023-05-14T03:02:51;101986.00;;;18.92;51.63
53550;BME280;67273;52.914;-0.982;2023-05-14T03:05:18;101985.13;;;18.92;51.76
53550;BME280;67273;52.914;-0.982;2023-05-14T03:07:44;101985.13;;;18.92;51.71
53550;BME280;67273;52.914;-0.982;2023-05-14T03:10:10;101975.09;;;18.92;51.76
53550;BME280;67273;52.914;-0.982;2023-05-14T03:12:36;101978.03;;;18.91;51.76
53550;BME280;67273;52.914;-0.982;2023-05-14T03:15:02;101968.16;;;18.90;51.80
53550;BME280;67273;52.914;-0.982;2023-05-14T03:17:28;101962.72;;;18.90;51.74
53550;BME280;67273;52.914;-0.982;2023-05-14T03:19:55;101968.16;;;18.90;51.55
53550;BME280;67273;52.914;-0.982;2023-05-14T03:22:22;101958.34;;;18.89;51.44
53550;BME280;67273;52.914;-0.982;2023-05-14T03:24:48;101963.78;;;18.89;51.79
53550;BME280;67273;52.914;-0.982;2023-05-14T03:27:13;101962.09;;;18.88;51.71
53550;BME280;67273;52.914;-0.982;2023-05-14T03:29:39;101957.47;;;18.88;51.72
53550;BME280;67273;52.914;-0.982;2023-05-14T03:32:06;101956.66;;;18.88;51.82
53550;BME280;67273;52.914;-0.982;2023-05-14T03:34:31;101955.00;;;18.87;51.96
53550;BME280;67273;52.914;-0.982;2023-05-14T03:36:57;101944.09;;;18.87;51.65
53550;BME280;67273;52.914;-0.982;2023-05-14T03:39:24;101943.25;;;18.86;51.81
53550;BME280;67273;52.914;-0.982;2023-05-14T03:41:50;101936.97;;;18.86;51.79
53550;BME280;67273;52.914;-0.982;2023-05-14T03:44:16;101943.25;;;18.86;51.69
53550;BME280;67273;52.914;-0.982;2023-05-14T03:46:41;101941.59;;;18.85;51.82
53550;BME280;67273;52.914;-0.982;2023-05-14T03:49:07;101946.16;;;18.85;51.82
53550;BME280;67273;52.914;-0.982;2023-05-14T03:51:33;101933.63;;;18.84;51.81
53550;BME280;67273;52.914;-0.982;2023-05-14T03:53:59;101928.16;;;18.84;51.79
53550;BME280;67273;52.914;-0.982;2023-05-14T03:56:27;101928.16;;;18.84;51.85
53550;BME280;67273;52.914;-0.982;2023-05-14T03:58:53;101923.75;;;18.83;51.73
53550;BME280;67273;52.914;-0.982;2023-05-14T04:01:19;101923.56;;;18.84;51.78
53550;BME280;67273;52.914;-0.982;2023-05-14T04:03:44;101926.47;;;18.83;51.77
53550;BME280;67273;52.914;-0.982;2023-05-14T04:06:11;101924.59;;;18.83;51.66
53550;BME280;67273;52.914;-0.982;2023-05-14T04:08:37;101920.22;;;18.82;51.84
53550;BME280;67273;52.914;-0.982;2023-05-14T04:11:03;101918.31;;;18.83;51.67
53550;BME280;67273;52.914;-0.982;2023-05-14T04:13:30;101920.22;;;18.82;51.78
53550;BME280;67273;52.914;-0.982;2023-05-14T04:15:56;101915.75;;;18.81;51.72
53550;BME280;67273;52.914;-0.982;2023-05-14T04:18:22;101928.38;;;18.82;51.69
53550;BME280;67273;52.914;-0.982;2023-05-14T04:20:48;101928.56;;;18.80;51.62
53550;BME280;67273;52.914;-0.982;2023-05-14T04:23:15;101924.81;;;18.82;51.60
53550;BME280;67273;52.914;-0.982;2023-05-14T04:25:41;101921.41;;;18.79;51.99
53550;BME280;67273;52.914;-0.982;2023-05-14T04:28:06;101919.56;;;18.80;51.71
53550;BME280;67273;52.914;-0.982;2023-05-14T04:30:35;101920.59;;;18.79;51.59
53550;BME280;67273;52.914;-0.982;2023-05-14T04:33:00;101915.13;;;18.79;51.53
53550;BME280;67273;52.914;-0.982;2023-05-14T04:35:26;101927.94;;;18.78;51.54
53550;BME280;67273;52.914;-0.982;2023-05-14T04:37:52;101923.31;;;18.79;51.58
53550;BME280;67273;52.914;-0.982;2023-05-14T04:40:18;101925.19;;;18.78;51.62
53550;BME280;67273;52.914;-0.982;2023-05-14T04:42:47;101925.19;;;18.78;51.56
53550;BME280;67273;52.914;-0.982;2023-05-14T04:45:13;101927.94;;;18.78;51.51
53550;BME280;67273;52.914;-0.982;2023-05-14T04:47:40;101928.13;;;18.77;51.63
53550;BME280;67273;52.914;-0.982;2023-05-14T04:50:08;101928.13;;;18.77;51.63
53550;BME280;67273;52.914;-0.982;2023-05-14T04:52:35;101921.84;;;18.76;51.56
53550;BME280;67273;52.914;-0.982;2023-05-14T04:55:00;101914.72;;;18.75;51.48
53550;BME280;67273;52.914;-0.982;2023-05-14T04:57:26;101910.97;;;18.76;51.54
53550;BME280;67273;52.914;-0.982;2023-05-14T04:59:54;101908.44;;;18.75;51.72
53550;BME280;67273;52.914;-0.982;2023-05-14T05:02:21;101904.91;;;18.74;51.33
53550;BME280;67273;52.914;-0.982;2023-05-14T05:04:48;101912.00;;;18.75;51.66
53550;BME280;67273;52.914;-0.982;2023-05-14T05:07:15;101905.72;;;18.75;51.57
53550;BME280;67273;52.914;-0.982;2023-05-14T05:09:41;101899.44;;;18.74;51.58
53550;BME280;67273;52.914;-0.982;2023-05-14T05:12:09;101901.31;;;18.74;51.36
53550;BME280;67273;52.914;-0.982;2023-05-14T05:14:36;101907.63;;;18.74;51.46
53550;BME280;67273;52.914;-0.982;2023-05-14T05:17:04;101896.72;;;18.74;51.47
53550;BME280;67273;52.914;-0.982;2023-05-14T05:19:31;101895.88;;;18.74;51.59
53550;BME280;67273;52.914;-0.982;2023-05-14T05:22:00;101905.94;;;18.73;51.50
53550;BME280;67273;52.914;-0.982;2023-05-14T05:24:29;101897.75;;;18.73;51.49
53550;BME280;67273;52.914;-0.982;2023-05-14T05:26:55;101897.75;;;18.73;51.59
53550;BME280;67273;52.914;-0.982;2023-05-14T05:29:24;101895.03;;;18.73;51.46
53550;BME280;67273;52.914;-0.982;2023-05-14T05:31:53;101893.34;;;18.72;51.54
53550;BME280;67273;52.914;-0.982;2023-05-14T05:34:21;101892.53;;;18.72;51.41
53550;BME280;67273;52.914;-0.982;2023-05-14T05:36:49;101895.25;;;18.72;51.56
53550;BME280;67273;52.914;-0.982;2023-05-14T05:39:18;101898.78;;;18.72;51.48
53550;BME280;67273;52.914;-0.982;2023-05-14T05:41:43;101890.63;;;18.72;51.47
53550;BME280;67273;52.914;-0.982;2023-05-14T05:44:09;101908.84;;;18.72;51.48
53550;BME280;67273;52.914;-0.982;2023-05-14T05:46:39;101899.88;;;18.71;51.45
53550;BME280;67273;52.914;-0.982;2023-05-14T05:49:06;101895.44;;;18.70;51.41
53550;BME280;67273;52.914;-0.982;2023-05-14T05:51:32;101907.19;;;18.71;51.42
53550;BME280;67273;52.914;-0.982;2023-05-14T05:53:57;101897.97;;;18.72;51.44
53550;BME280;67273;52.914;-0.982;2023-05-14T05:56:24;101890.00;;;18.70;51.41
53550;BME280;67273;52.914;-0.982;2023-05-14T05:58:52;101891.69;;;18.71;51.50
53550;BME280;67273;52.914;-0.982;2023-05-14T06:01:20;101878.28;;;18.70;51.50
53550;BME280;67273;52.914;-0.982;2023-05-14T06:03:47;101876.41;;;18.70;51.46
53550;BME280;67273;52.914;-0.982;2023-05-14T06:06:13;101879.13;;;18.70;51.48
53550;BME280;67273;52.914;-0.982;2023-05-14T06:08:40;101884.56;;;18.70;51.45
53550;BME280;67273;52.914;-0.982;2023-05-14T06:11:10;101893.59;;;18.71;51.53
53550;BME280;67273;52.914;-0.982;2023-05-14T06:13:39;101879.13;;;18.70;51.42
53550;BME280;67273;52.914;-0.982;2023-05-14T06:16:07;101886.25;;;18.71;51.39
53550;BME280;67273;52.914;-0.982;2023-05-14T06:18:32;101890.88;;;18.71;51.42
53550;BME280;67273;52.914;-0.982;2023-05-14T06:20:58;101891.69;;;18.71;51.49
53550;BME280;67273;52.914;-0.982;2023-05-14T06:23:24;101890.00;;;18.70;51.37
53550;BME280;67273;52.914;-0.982;2023-05-14T06:25:52;101889.19;;;18.70;51.43
53550;BME280;67273;52.914;-0.982;2023-05-14T06:28:19;101885.63;;;18.69;51.46
53550;BME280;67273;52.914;-0.982;2023-05-14T06:30:48;101883.75;;;18.70;51.32
53550;BME280;67273;52.914;-0.982;2023-05-14T06:33:14;101876.41;;;18.70;51.43
53550;BME280;67273;52.914;-0.982;2023-05-14T06:35:39;101872.84;;;18.70;51.46
53550;BME280;67273;52.914;-0.982;2023-05-14T06:38:05;101868.22;;;18.70;51.33
53550;BME280;67273;52.914;-0.982;2023-05-14T06:40:31;101857.34;;;18.70;51.41
53550;BME280;67273;52.914;-0.982;2023-05-14T06:42:59;101861.97;;;18.70;51.37
53550;BME280;67273;52.914;-0.982;2023-05-14T06:45:26;101857.34;;;18.70;51.25
53550;BME280;67273;52.914;-0.982;2023-05-14T06:47:54;101856.50;;;18.70;51.38
53550;BME280;67273;52.914;-0.982;2023-05-14T06:50:20;101857.34;;;18.70;51.32
53550;BME280;67273;52.914;-0.982;2023-05-14T06:52:46;101857.34;;;18.70;51.36
53550;BME280;67273;52.914;-0.982;2023-05-14T06:55:12;101865.50;;;18.70;51.38
53550;BME280;67273;52.914;-0.982;2023-05-14T06:57:38;101860.91;;;18.71;51.48
53550;BME280;67273;52.914;-0.982;2023-05-14T07:00:05;101859.84;;;18.72;51.25
53550;BME280;67273;52.914;-0.982;2023-05-14T07:02:31;101857.13;;;18.72;51.24
53550;BME280;67273;52.914;-0.982;2023-05-14T07:04:58;101862.38;;;18.73;51.19
53550;BME280;67273;52.914;-0.982;2023-05-14T07:07:24;101855.25;;;18.72;51.20
53550;BME280;67273;52.914;-0.982;2023-05-14T07:09:49;101858.63;;;18.74;51.25
53550;BME280;67273;52.914;-0.982;2023-05-14T07:12:15;101855.91;;;18.74;51.10
53550;BME280;67273;52.914;-0.982;2023-05-14T07:14:41;101854.81;;;18.75;51.18
53550;BME280;67273;52.914;-0.982;2023-05-14T07:17:07;101864.06;;;18.74;51.12
53550;BME280;67273;52.914;-0.982;2023-05-14T07:19:32;101858.63;;;18.74;51.11
53550;BME280;67273;52.914;-0.982;2023-05-14T07:21:59;101854.81;;;18.75;51.20
53550;BME280;67273;52.914;-0.982;2023-05-14T07:24:25;101849.38;;;18.75;51.13
53550;BME280;67273;52.914;-0.982;2023-05-14T07:26:51;101840.38;;;18.75;51.06
53550;BME280;67273;52.914;-0.982;2023-05-14T07:29:17;101843.94;;;18.75;51.12
53550;BME280;67273;52.914;-0.982;2023-05-14T07:31:43;101840.19;;;18.76;51.08
53550;BME280;67273;52.914;-0.982;2023-05-14T07:34:09;101843.72;;;18.77;51.07
53550;BME280;67273;52.914;-0.982;2023-05-14T07:36:36;101834.72;;;18.76;51.13
53550;BME280;67273;52.914;-0.982;2023-05-14T07:39:03;101839.13;;;18.77;51.16
53550;BME280;67273;52.914;-0.982;2023-05-14T07:41:29;101840.19;;;18.76;51.02
53550;BME280;67273;52.914;-0.982;2023-05-14T07:43:55;101835.56;;;18.77;51.02
53550;BME280;67273;52.914;-0.982;2023-05-14T07:46:20;101837.25;;;18.78;51.08
53550;BME280;67273;52.914;-0.982;2023-05-14T07:48:46;101836.38;;;18.77;51.07
53550;BME280;67273;52.914;-0.982;2023-05-14T07:51:12;101825.50;;;18.77;51.08
53550;BME280;67273;52.914;-0.982;2023-05-14T07:53:37;101822.78;;;18.77;50.78
53550;BME280;67273;52.914;-0.982;2023-05-14T07:56:05;101834.28;;;18.79;51.02
53550;BME280;67273;52.914;-0.982;2023-05-14T07:58:31;101826.13;;;18.79;51.12
53550;BME280;67273;52.914;-0.982;2023-05-14T08:00:57;101815.22;;;18.79;50.99
53550;BME280;67273;52.914;-0.982;2023-05-14T08:03:22;101817.94;;;18.79;51.03
53550;BME280;67273;52.914;-0.982;2023-05-14T08:05:48;101825.09;;;18.80;51.05
53550;BME280;67273;52.914;-0.982;2023-05-14T08:08:14;101820.69;;;18.79;51.03
53550;BME280;67273;52.914;-0.982;2023-05-14T08:10:40;101815.22;;;18.79;50.97
53550;BME280;67273;52.914;-0.982;2023-05-14T08:13:07;101813.38;;;18.80;50.95
53550;BME280;67273;52.914;-0.982;2023-05-14T08:15:33;101814.19;;;18.80;50.97
53550;BME280;67273;52.914;-0.982;2023-05-14T08:17:59;101813.19;;;18.82;51.06
53550;BME280;67273;52.914;-0.982;2023-05-14T08:20:28;101807.75;;;18.82;51.12
53550;BME280;67273;52.914;-0.982;2023-05-14T08:22:55;101809.56;;;18.81;50.94
53550;BME280;67273;52.914;-0.982;2023-05-14T08:25:21;101809.41;;;18.83;50.96
53550;BME280;67273;52.914;-0.982;2023-05-14T08:27:46;101805.84;;;18.82;50.88
53550;BME280;67273;52.914;-0.982;2023-05-14T08:30:14;101814.63;;;18.84;50.82
53550;BME280;67273;52.914;-0.982;2023-05-14T08:32:40;101802.91;;;18.84;51.01
53550;BME280;67273;52.914;-0.982;2023-05-14T08:35:07;101806.47;;;18.84;51.12
53550;BME280;67273;52.914;-0.982;2023-05-14T08:37:33;101807.28;;;18.85;51.10
53550;BME280;67273;52.914;-0.982;2023-05-14T08:39:59;101804.56;;;18.85;50.97
53550;BME280;67273;52.914;-0.982;2023-05-14T08:42:25;101802.91;;;18.84;50.92
53550;BME280;67273;52.914;-0.982;2023-05-14T08:44:55;101799.13;;;18.85;50.87
53550;BME280;67273;52.914;-0.982;2023-05-14T08:47:24;101789.31;;;18.84;50.95
53550;BME280;67273;52.914;-0.982;2023-05-14T08:49:53;101796.41;;;18.85;50.99
53550;BME280;67273;52.914;-0.982;2023-05-14T08:52:21;101782.78;;;18.85;50.90
53550;BME280;67273;52.914;-0.982;2023-05-14T08:54:49;101788.22;;;18.85;50.92
53550;BME280;67273;52.914;-0.982;2023-05-14T08:57:16;101789.09;;;18.85;50.93
53550;BME280;67273;52.914;-0.982;2023-05-14T08:59:43;101780.94;;;18.85;50.82
53550;BME280;67273;52.914;-0.982;2023-05-14T09:02:09;101775.28;;;18.87;50.77
53550;BME280;67273;52.914;-0.982;2023-05-14T09:04:40;101770.88;;;18.86;50.96
53550;BME280;67273;52.914;-0.982;2023-05-14T09:07:06;101769.81;;;18.87;50.92
53550;BME280;67273;52.914;-0.982;2023-05-14T09:09:32;101770.66;;;18.87;50.96
53550;BME280;67273;52.914;-0.982;2023-05-14T09:12:00;101768.75;;;18.88;50.91
53550;BME280;67273;52.914;-0.982;2023-05-14T09:14:25;101771.47;;;18.88;50.90
53550;BME280;67273;52.914;-0.982;2023-05-14T09:16:51;101763.31;;;18.88;50.93
53550;BME280;67273;52.914;-0.982;2023-05-14T09:19:17;101761.41;;;18.88;50.75
53550;BME280;67273;52.914;-0.982;2023-05-14T09:21:46;101765.00;;;18.89;50.89
53550;BME280;67273;52.914;-0.982;2023-05-14T09:24:18;101759.56;;;18.89;50.98
53550;BME280;67273;52.914;-0.982;2023-05-14T09:26:44;101758.47;;;18.90;50.78
53550;BME280;67273;52.914;-0.982;2023-05-14T09:29:10;101759.34;;;18.90;50.95
53550;BME280;67273;52.914;-0.982;2023-05-14T09:31:35;101755.75;;;18.90;50.87
53550;BME280;67273;52.914;-0.982;2023-05-14T09:34:01;101752.00;;;18.91;50.92
53550;BME280;67273;52.914;-0.982;2023-05-14T09:36:28;101749.28;;;18.91;50.92
53550;BME280;67273;52.914;-0.982;2023-05-14T09:38:56;101743.00;;;18.90;50.88
53550;BME280;67273;52.914;-0.982;2023-05-14T09:41:22;101744.66;;;18.91;50.76
53550;BME280;67273;52.914;-0.982;2023-05-14T09:43:48;101741.94;;;18.91;50.87
53550;BME280;67273;52.914;-0.982;2023-05-14T09:46:15;101730.22;;;18.91;51.43
53550;BME280;67273;52.914;-0.982;2023-05-14T09:48:40;101731.88;;;18.92;50.86
53550;BME280;67273;52.914;-0.982;2023-05-14T09:51:08;101726.41;;;18.92;50.81
53550;BME280;67273;52.914;-0.982;2023-05-14T09:53:34;101720.97;;;18.92;50.89
53550;BME280;67273;52.914;-0.982;2023-05-14T09:56:01;101720.97;;;18.92;50.86
53550;BME280;67273;52.914;-0.982;2023-05-14T09:58:27;101712.81;;;18.92;50.87
53550;BME280;67273;52.914;-0.982;2023-05-14T10:00:56;101705.72;;;18.91;50.76
53550;BME280;67273;52.914;-0.982;2023-05-14T10:03:24;101705.50;;;18.92;50.87
53550;BME280;67273;52.914;-0.982;2023-05-14T10:05:51;101710.09;;;18.92;50.82
53550;BME280;67273;52.914;-0.982;2023-05-14T10:08:23;101707.34;;;18.92;50.78
53550;BME280;67273;52.914;-0.982;2023-05-14T10:10:50;101712.81;;;18.92;50.81
53550;BME280;67273;52.914;-0.982;2023-05-14T10:13:19;101719.09;;;18.92;50.83
53550;BME280;67273;52.914;-0.982;2023-05-14T10:15:47;101711.13;;;18.97;51.14
53550;BME280;67273;52.914;-0.982;2023-05-14T10:18:16;101713.63;;;18.99;51.09
53550;BME280;67273;52.914;-0.982;2023-05-14T10:20:45;101711.75;;;18.99;51.32
53550;BME280;67273;52.914;-0.982;2023-05-14T10:23:12;101714.47;;;18.99;51.12
53550;BME280;67273;52.914;-0.982;2023-05-14T10:25:38;101713.41;;;19.00;51.06
53550;BME280;67273;52.914;-0.982;2023-05-14T10:28:04;101715.31;;;19.00;51.02
53550;BME280;67273;52.914;-0.982;2023-05-14T10:30:32;101711.53;;;19.01;51.06
53550;BME280;67273;52.914;-0.982;2023-05-14T10:33:05;101711.53;;;19.01;51.05
53550;BME280;67273;52.914;-0.982;2023-05-14T10:35:31;101706.09;;;19.01;51.02
53550;BME280;67273;52.914;-0.982;2023-05-14T10:38:15;101707.31;;;19.05;51.91
53550;BME280;67273;52.914;-0.982;2023-05-14T10:40:41;101709.41;;;19.10;51.81
53550;BME280;67273;52.914;-0.982;2023-05-14T10:43:07;101694.28;;;19.14;52.20
53550;BME280;67273;52.914;-0.982;2023-05-14T10:45:36;101696.41;;;19.12;52.05
53550;BME280;67273;52.914;-0.982;2023-05-14T10:48:02;101696.63;;;19.10;52.18
53550;BME280;67273;52.914;-0.982;2023-05-14T10:50:28;101685.72;;;19.10;52.19
53550;BME280;67273;52.914;-0.982;2023-05-14T10:52:54;101693.88;;;19.10;52.07
53550;BME280;67273;52.914;-0.982;2023-05-14T10:55:21;101686.75;;;19.09;52.11
53550;BME280;67273;52.914;-0.982;2023-05-14T10:57:48;101684.88;;;19.10;52.14
53550;BME280;67273;52.914;-0.982;2023-05-14T11:00:14;101680.28;;;19.10;52.07
53550;BME280;67273;52.914;-0.982;2023-05-14T11:02:42;101672.94;;;19.11;51.91
53550;BME280;67273;52.914;-0.982;2023-05-14T11:05:11;101662.84;;;19.11;51.80
53550;BME280;67273;52.914;-0.982;2023-05-14T11:07:39;101661.00;;;19.12;51.69
53550;BME280;67273;52.914;-0.982;2023-05-14T11:10:06;101649.25;;;19.11;51.55
53550;BME280;67273;52.914;-0.982;2023-05-14T11:12:33;101653.44;;;19.14;51.80
53550;BME280;67273;52.914;-0.982;2023-05-14T11:15:00;101647.16;;;19.13;51.63
53550;BME280;67273;52.914;-0.982;2023-05-14T11:17:27;101645.25;;;19.14;51.40
53550;BME280;67273;52.914;-0.982;2023-05-14T11:19:56;101638.75;;;19.15;51.27
53550;BME280;67273;52.914;-0.982;2023-05-14T11:22:22;101639.59;;;19.15;51.42
53550;BME280;67273;52.914;-0.982;2023-05-14T11:24:48;101635.81;;;19.16;51.13
53550;BME280;67273;52.914;-0.982;2023-05-14T11:27:14;101633.06;;;19.16;51.21
53550;BME280;67273;52.914;-0.982;2023-05-14T11:29:42;101630.34;;;19.16;51.22
53550;BME280;67273;52.914;-0.982;2023-05-14T11:32:09;101634.75;;;19.17;51.13
53550;BME280;67273;52.914;-0.982;2023-05-14T11:34:35;101632.84;;;19.18;51.16
53550;BME280;67273;52.914;-0.982;2023-05-14T11:37:03;101630.97;;;19.18;51.05
53550;BME280;67273;52.914;-0.982;2023-05-14T11:39:30;101626.38;;;19.19;51.20
53550;BME280;67273;52.914;-0.982;2023-05-14T11:41:56;101632.66;;;19.19;51.03
53550;BME280;67273;52.914;-0.982;2023-05-14T11:44:22;101627.19;;;19.19;51.09
53550;BME280;67273;52.914;-0.982;2023-05-14T11:46:55;101629.91;;;19.19;51.10
53550;BME280;67273;52.914;-0.982;2023-05-14T11:49:21;101637.06;;;19.21;51.14
53550;BME280;67273;52.914;-0.982;2023-05-14T11:51:47;101635.16;;;19.21;51.09
53550;BME280;67273;52.914;-0.982;2023-05-14T11:54:14;101630.53;;;19.22;50.96
53550;BME280;67273;52.914;-0.982;2023-05-14T11:56:40;101620.47;;;19.22;50.97
53550;BME280;67273;52.914;-0.982;2023-05-14T11:59:06;101625.88;;;19.29;51.90
53550;BME280;67273;52.914;-0.982;2023-05-14T12:01:35;101616.53;;;19.43;51.31
53550;BME280;67273;52.914;-0.982;2023-05-14T12:04:02;101620.56;;;19.66;51.67
53550;BME280;67273;52.914;-0.982;2023-05-14T12:06:30;101606.88;;;19.72;51.62
53550;BME280;67273;52.914;-0.982;2023-05-14T12:08:57;101600.34;;;19.80;51.64
53550;BME280;67273;52.914;-0.982;2023-05-14T12:11:29;101591.03;;;19.88;51.61
53550;BME280;67273;52.914;-0.982;2023-05-14T12:13:56;101595.81;;;19.92;51.64
53550;BME280;67273;52.914;-0.982;2023-05-14T12:16:22;101587.19;;;19.96;51.83
53550;BME280;67273;52.914;-0.982;2023-05-14T12:18:47;101587.97;;;20.03;51.65
53550;BME280;67273;52.914;-0.982;2023-05-14T12:21:13;101582.88;;;20.06;51.54
53550;BME280;67273;52.914;-0.982;2023-05-14T12:23:39;101587.41;;;20.12;51.52
53550;BME280;67273;52.914;-0.982;2023-05-14T12:26:06;101579.38;;;20.18;51.65
53550;BME280;67273;52.914;-0.982;2023-05-14T12:28:37;101581.44;;;20.22;51.53
53550;BME280;67273;52.914;-0.982;2023-05-14T12:31:03;101576.59;;;20.24;51.58
53550;BME280;67273;52.914;-0.982;2023-05-14T12:33:28;101568.78;;;20.28;51.46
53550;BME280;67273;52.914;-0.982;2023-05-14T12:35:54;101559.78;;;20.27;51.74
53550;BME280;67273;52.914;-0.982;2023-05-14T12:38:26;101568.47;;;20.18;52.82